< Cyclone 201726 2017 Season Cyclone 201729 >
Cyclone 201727 (noname)
General InformationTrack Information on Google MapsList of All Images || ResourceGoogle EarthGE AnimationAtom FeedGeoJSON
Detalied Best Track (Time Zone = UTC)
Year Month Day Hour Lat. Long. Pressure (hPa) Wind (kt) Class Image Chart
2017 4 6 00 -7.5 135.3 1005 0 0 Image --
2017 4 6 06 -8.4 136.9 1005 0 0 Image --
2017 4 7 00 -7.6 134.1 1005 0 0 Image --
2017 4 7 06 -8.1 134.0 1005 0 0 Image --
2017 4 7 12 -6.9 133.6 1005 15 2 Image --
2017 4 7 18 -6.9 133.4 1005 15 2 Image --
2017 4 8 00 -7.3 132.5 1005 15 2 Image --
2017 4 8 06 -7.6 132.6 1005 20 2 Image --
2017 4 8 12 -7.5 132.3 1006 20 2 Image --
2017 4 8 18 -7.3 131.8 1003 20 2 Image --
2017 4 9 00 -7.4 131.9 1004 20 2 Image --
2017 4 9 06 -7.7 132.2 1002 25 2 Image --
2017 4 9 12 -8.0 132.8 1003 25 2 Image --
2017 4 9 18 -8.3 132.8 1003 25 2 Image --
2017 4 10 00 -9.0 132.9 1001 25 2 Image --
2017 4 10 06 -9.7 132.5 998 25 2 Image --
2017 4 10 12 -10.2 132.2 999 30 2 Image --
2017 4 10 18 -10.4 132.3 998 30 2 Image --
2017 4 11 00 -10.8 132.2 998 30 2 Image --
2017 4 11 06 -11.5 132.1 998 30 2 Image --
2017 4 11 12 -11.8 131.8 1002 30 2 Image --
2017 4 11 18 -12.0 131.2 1003 25 2 Image --
2017 4 12 00 -12.3 131.0 1006 20 2 Image --
2017 4 12 06 -12.7 130.4 1004 20 2 Image --
2017 4 12 12 -12.8 129.6 1006 20 2 Image --
2017 4 12 18 -13.2 129.0 1008 20 2 Image --
2017 4 13 00 -13.4 127.6 1008 25 2 Image --
2017 4 13 06 -13.5 125.2 1008 0 0 Image --
2017 4 13 12 -13.9 123.8 1008 0 0 Image --
2017 4 13 18 -14.1 122.0 1008 0 0 Image --
2017 4 14 00 -14.5 121.1 1008 0 0 Image --
2017 4 14 06 -15.3 119.5 1008 0 0 Image --
2017 4 14 12 -15.6 118.9 1008 0 0 Image --
2017 4 14 18 -15.9 118.1 1008 0 0 Image --
2017 4 15 00 -16.4 117.6 1008 0 0 Image --
2017 4 15 06 -16.4 116.9 1008 0 0 Image --
2017 4 16 00 -15.7 115.1 1008 0 0 Image --
< Cyclone 201726 2017 Season Cyclone 201729 >

Help